sensor_id;sensor_type;location;lat;lon;timestamp;P1;durP1;ratioP1;P2;durP2;ratioP2
53505;SDS011;39388;50.936;6.848;2022-10-16T00:00:21;4.70;;;2.55;;
53505;SDS011;39388;50.936;6.848;2022-10-16T00:02:51;2.40;;;2.08;;
53505;SDS011;39388;50.936;6.848;2022-10-16T00:05:21;3.45;;;2.42;;
53505;SDS011;39388;50.936;6.848;2022-10-16T00:07:52;2.03;;;1.85;;
53505;SDS011;39388;50.936;6.848;2022-10-16T00:10:22;3.40;;;2.00;;
53505;SDS011;39388;50.936;6.848;2022-10-16T00:12:53;2.25;;;2.05;;
53505;SDS011;39388;50.936;6.848;2022-10-16T00:15:23;2.97;;;2.10;;
53505;SDS011;39388;50.936;6.848;2022-10-16T00:17:53;2.20;;;1.77;;
53505;SDS011;39388;50.936;6.848;2022-10-16T00:20:24;2.13;;;1.92;;
53505;SDS011;39388;50.936;6.848;2022-10-16T00:22:55;2.53;;;1.92;;
53505;SDS011;39388;50.936;6.848;2022-10-16T00:25:25;2.33;;;2.05;;
53505;SDS011;39388;50.936;6.848;2022-10-16T00:27:55;4.10;;;2.00;;
53505;SDS011;39388;50.936;6.848;2022-10-16T00:30:26;1.77;;;1.67;;
53505;SDS011;39388;50.936;6.848;2022-10-16T00:32:57;2.00;;;1.80;;
53505;SDS011;39388;50.936;6.848;2022-10-16T00:35:28;1.90;;;1.80;;
53505;SDS011;39388;50.936;6.848;2022-10-16T00:37:59;2.42;;;1.50;;
53505;SDS011;39388;50.936;6.848;2022-10-16T00:40:29;2.15;;;1.80;;
53505;SDS011;39388;50.936;6.848;2022-10-16T00:42:59;3.45;;;2.33;;
53505;SDS011;39388;50.936;6.848;2022-10-16T00:45:30;2.78;;;1.63;;
53505;SDS011;39388;50.936;6.848;2022-10-16T00:48:00;2.75;;;1.70;;
53505;SDS011;39388;50.936;6.848;2022-10-16T00:50:31;2.33;;;1.60;;
53505;SDS011;39388;50.936;6.848;2022-10-16T00:53:04;2.00;;;1.80;;
53505;SDS011;39388;50.936;6.848;2022-10-16T00:55:35;2.03;;;1.70;;
53505;SDS011;39388;50.936;6.848;2022-10-16T00:58:06;2.25;;;1.60;;
53505;SDS011;39388;50.936;6.848;2022-10-16T01:00:37;2.63;;;1.75;;
53505;SDS011;39388;50.936;6.848;2022-10-16T01:03:24;6.03;;;2.25;;
53505;SDS011;39388;50.936;6.848;2022-10-16T01:06:09;4.10;;;2.00;;
53505;SDS011;39388;50.936;6.848;2022-10-16T01:08:49;2.53;;;2.30;;
53505;SDS011;39388;50.936;6.848;2022-10-16T01:11:32;2.92;;;2.60;;
53505;SDS011;39388;50.936;6.848;2022-10-16T01:14:11;3.53;;;2.38;;
53505;SDS011;39388;50.936;6.848;2022-10-16T01:16:55;2.40;;;2.20;;
53505;SDS011;39388;50.936;6.848;2022-10-16T01:22:21;4.03;;;2.83;;
53505;SDS011;39388;50.936;6.848;2022-10-16T01:24:56;2.75;;;2.55;;
53505;SDS011;39388;50.936;6.848;2022-10-16T01:27:30;3.22;;;2.50;;
53505;SDS011;39388;50.936;6.848;2022-10-16T01:32:52;3.55;;;2.40;;
53505;SDS011;39388;50.936;6.848;2022-10-16T01:35:32;3.85;;;2.72;;
53505;SDS011;39388;50.936;6.848;2022-10-16T01:40:41;5.32;;;2.42;;
53505;SDS011;39388;50.936;6.848;2022-10-16T01:43:24;3.67;;;2.40;;
53505;SDS011;39388;50.936;6.848;2022-10-16T01:45:59;2.42;;;2.22;;
53505;SDS011;39388;50.936;6.848;2022-10-16T01:48:31;3.17;;;2.42;;
53505;SDS011;39388;50.936;6.848;2022-10-16T01:51:06;2.80;;;2.40;;
53505;SDS011;39388;50.936;6.848;2022-10-16T01:53:41;3.47;;;2.53;;
53505;SDS011;39388;50.936;6.848;2022-10-16T01:56:16;4.60;;;2.60;;
53505;SDS011;39388;50.936;6.848;2022-10-16T01:58:49;3.60;;;2.55;;
53505;SDS011;39388;50.936;6.848;2022-10-16T02:01:24;4.10;;;2.88;;
53505;SDS011;39388;50.936;6.848;2022-10-16T02:03:58;4.03;;;2.90;;
53505;SDS011;39388;50.936;6.848;2022-10-16T02:06:33;3.35;;;2.40;;
53505;SDS011;39388;50.936;6.848;2022-10-16T02:09:03;2.92;;;2.63;;
53505;SDS011;39388;50.936;6.848;2022-10-16T02:11:33;2.95;;;2.72;;
53505;SDS011;39388;50.936;6.848;2022-10-16T02:14:05;2.92;;;2.33;;
53505;SDS011;39388;50.936;6.848;2022-10-16T02:16:37;4.82;;;2.85;;
53505;SDS011;39388;50.936;6.848;2022-10-16T02:19:10;3.22;;;2.80;;
53505;SDS011;39388;50.936;6.848;2022-10-16T02:21:43;3.53;;;2.50;;
53505;SDS011;39388;50.936;6.848;2022-10-16T02:24:25;4.22;;;2.63;;
53505;SDS011;39388;50.936;6.848;2022-10-16T02:29:52;3.70;;;2.85;;
53505;SDS011;39388;50.936;6.848;2022-10-16T02:32:30;3.78;;;2.90;;
53505;SDS011;39388;50.936;6.848;2022-10-16T02:35:02;4.45;;;2.47;;
53505;SDS011;39388;50.936;6.848;2022-10-16T02:37:34;4.05;;;2.33;;
53505;SDS011;39388;50.936;6.848;2022-10-16T02:40:05;3.40;;;2.55;;
53505;SDS011;39388;50.936;6.848;2022-10-16T02:42:39;3.38;;;2.45;;
53505;SDS011;39388;50.936;6.848;2022-10-16T02:45:10;3.35;;;2.40;;
53505;SDS011;39388;50.936;6.848;2022-10-16T02:47:41;9.60;;;2.65;;
53505;SDS011;39388;50.936;6.848;2022-10-16T02:50:11;2.80;;;2.30;;
53505;SDS011;39388;50.936;6.848;2022-10-16T02:52:42;3.95;;;2.50;;
53505;SDS011;39388;50.936;6.848;2022-10-16T02:55:12;3.50;;;2.80;;
53505;SDS011;39388;50.936;6.848;2022-10-16T02:57:43;3.60;;;2.75;;
53505;SDS011;39388;50.936;6.848;2022-10-16T03:00:14;2.72;;;2.45;;
53505;SDS011;39388;50.936;6.848;2022-10-16T03:02:46;2.85;;;2.55;;
53505;SDS011;39388;50.936;6.848;2022-10-16T03:05:17;2.67;;;2.20;;
53505;SDS011;39388;50.936;6.848;2022-10-16T03:07:47;3.03;;;2.50;;
53505;SDS011;39388;50.936;6.848;2022-10-16T03:10:18;3.72;;;1.98;;
53505;SDS011;39388;50.936;6.848;2022-10-16T03:12:48;2.30;;;2.10;;
53505;SDS011;39388;50.936;6.848;2022-10-16T03:15:19;2.25;;;1.90;;
53505;SDS011;39388;50.936;6.848;2022-10-16T03:17:49;2.65;;;1.90;;
53505;SDS011;39388;50.936;6.848;2022-10-16T03:20:20;2.50;;;2.03;;
53505;SDS011;39388;50.936;6.848;2022-10-16T03:22:50;2.97;;;2.20;;
53505;SDS011;39388;50.936;6.848;2022-10-16T03:25:20;3.63;;;2.13;;
53505;SDS011;39388;50.936;6.848;2022-10-16T03:27:51;2.35;;;2.00;;
53505;SDS011;39388;50.936;6.848;2022-10-16T03:30:22;2.10;;;1.90;;
53505;SDS011;39388;50.936;6.848;2022-10-16T03:32:52;2.20;;;2.00;;
53505;SDS011;39388;50.936;6.848;2022-10-16T03:35:24;2.92;;;2.08;;
53505;SDS011;39388;50.936;6.848;2022-10-16T03:37:54;2.53;;;2.33;;
53505;SDS011;39388;50.936;6.848;2022-10-16T03:40:25;2.00;;;1.80;;
53505;SDS011;39388;50.936;6.848;2022-10-16T03:42:55;2.20;;;2.00;;
53505;SDS011;39388;50.936;6.848;2022-10-16T03:45:27;4.60;;;2.10;;
53505;SDS011;39388;50.936;6.848;2022-10-16T03:47:57;2.22;;;1.80;;
53505;SDS011;39388;50.936;6.848;2022-10-16T03:50:27;2.78;;;2.05;;
53505;SDS011;39388;50.936;6.848;2022-10-16T03:52:58;4.03;;;1.90;;
53505;SDS011;39388;50.936;6.848;2022-10-16T03:55:28;2.97;;;2.08;;
53505;SDS011;39388;50.936;6.848;2022-10-16T03:57:59;2.78;;;1.65;;
53505;SDS011;39388;50.936;6.848;2022-10-16T04:00:29;2.13;;;1.98;;
53505;SDS011;39388;50.936;6.848;2022-10-16T04:03:00;3.58;;;1.70;;
53505;SDS011;39388;50.936;6.848;2022-10-16T04:05:30;2.95;;;1.50;;
53505;SDS011;39388;50.936;6.848;2022-10-16T04:08:01;2.33;;;1.30;;
53505;SDS011;39388;50.936;6.848;2022-10-16T04:10:31;1.67;;;1.38;;
53505;SDS011;39388;50.936;6.848;2022-10-16T04:13:02;1.40;;;1.30;;
53505;SDS011;39388;50.936;6.848;2022-10-16T04:15:32;2.65;;;1.40;;
53505;SDS011;39388;50.936;6.848;2022-10-16T04:18:03;1.60;;;1.50;;
53505;SDS011;39388;50.936;6.848;2022-10-16T04:20:34;1.80;;;1.40;;
53505;SDS011;39388;50.936;6.848;2022-10-16T04:23:05;2.10;;;1.50;;
53505;SDS011;39388;50.936;6.848;2022-10-16T04:25:35;1.75;;;1.40;;
53505;SDS011;39388;50.936;6.848;2022-10-16T04:28:05;1.40;;;1.30;;
53505;SDS011;39388;50.936;6.848;2022-10-16T04:30:37;3.05;;;1.30;;
53505;SDS011;39388;50.936;6.848;2022-10-16T04:33:08;4.45;;;1.52;;
53505;SDS011;39388;50.936;6.848;2022-10-16T04:35:39;1.85;;;1.33;;
53505;SDS011;39388;50.936;6.848;2022-10-16T04:38:10;1.50;;;1.40;;
53505;SDS011;39388;50.936;6.848;2022-10-16T04:40:41;1.38;;;1.27;;
53505;SDS011;39388;50.936;6.848;2022-10-16T04:43:12;2.60;;;1.55;;
53505;SDS011;39388;50.936;6.848;2022-10-16T04:45:42;1.70;;;1.60;;
53505;SDS011;39388;50.936;6.848;2022-10-16T04:48:13;1.52;;;1.30;;
53505;SDS011;39388;50.936;6.848;2022-10-16T04:50:43;1.60;;;1.45;;
53505;SDS011;39388;50.936;6.848;2022-10-16T04:53:14;1.70;;;1.60;;
53505;SDS011;39388;50.936;6.848;2022-10-16T04:55:44;3.63;;;1.70;;
53505;SDS011;39388;50.936;6.848;2022-10-16T04:58:15;2.35;;;1.70;;
53505;SDS011;39388;50.936;6.848;2022-10-16T05:00:46;4.63;;;1.70;;
53505;SDS011;39388;50.936;6.848;2022-10-16T05:03:16;1.67;;;1.58;;
53505;SDS011;39388;50.936;6.848;2022-10-16T05:05:47;4.05;;;1.60;;
53505;SDS011;39388;50.936;6.848;2022-10-16T05:08:17;2.30;;;1.60;;
53505;SDS011;39388;50.936;6.848;2022-10-16T05:10:47;2.03;;;1.85;;
53505;SDS011;39388;50.936;6.848;2022-10-16T05:13:18;2.08;;;1.80;;
53505;SDS011;39388;50.936;6.848;2022-10-16T05:15:48;1.90;;;1.70;;
53505;SDS011;39388;50.936;6.848;2022-10-16T05:18:19;2.08;;;1.80;;
53505;SDS011;39388;50.936;6.848;2022-10-16T05:20:50;2.10;;;1.90;;
53505;SDS011;39388;50.936;6.848;2022-10-16T05:23:20;2.33;;;1.70;;
53505;SDS011;39388;50.936;6.848;2022-10-16T05:25:54;1.63;;;1.45;;
53505;SDS011;39388;50.936;6.848;2022-10-16T05:28:28;1.80;;;1.70;;
53505;SDS011;39388;50.936;6.848;2022-10-16T05:31:03;2.78;;;1.70;;
53505;SDS011;39388;50.936;6.848;2022-10-16T05:33:37;2.30;;;1.80;;
53505;SDS011;39388;50.936;6.848;2022-10-16T05:36:08;3.08;;;1.80;;
53505;SDS011;39388;50.936;6.848;2022-10-16T05:38:39;3.38;;;2.22;;
53505;SDS011;39388;50.936;6.848;2022-10-16T05:41:10;2.22;;;1.88;;
53505;SDS011;39388;50.936;6.848;2022-10-16T05:43:40;2.95;;;1.70;;
53505;SDS011;39388;50.936;6.848;2022-10-16T05:46:10;2.00;;;1.85;;
53505;SDS011;39388;50.936;6.848;2022-10-16T05:48:44;2.25;;;1.90;;
53505;SDS011;39388;50.936;6.848;2022-10-16T05:51:15;2.55;;;1.83;;
53505;SDS011;39388;50.936;6.848;2022-10-16T05:53:45;2.35;;;2.05;;
53505;SDS011;39388;50.936;6.848;2022-10-16T05:56:15;1.88;;;1.77;;
53505;SDS011;39388;50.936;6.848;2022-10-16T05:58:46;3.60;;;2.10;;
53505;SDS011;39388;50.936;6.848;2022-10-16T06:01:17;3.03;;;1.90;;
53505;SDS011;39388;50.936;6.848;2022-10-16T06:03:48;2.78;;;1.95;;
53505;SDS011;39388;50.936;6.848;2022-10-16T06:06:20;2.30;;;2.10;;
53505;SDS011;39388;50.936;6.848;2022-10-16T06:08:53;2.35;;;2.15;;
53505;SDS011;39388;50.936;6.848;2022-10-16T06:13:57;2.65;;;2.20;;
53505;SDS011;39388;50.936;6.848;2022-10-16T06:16:36;2.90;;;2.03;;
53505;SDS011;39388;50.936;6.848;2022-10-16T06:19:07;3.13;;;2.17;;
53505;SDS011;39388;50.936;6.848;2022-10-16T06:21:39;2.40;;;2.10;;
53505;SDS011;39388;50.936;6.848;2022-10-16T06:24:09;2.80;;;2.22;;
53505;SDS011;39388;50.936;6.848;2022-10-16T06:26:39;2.58;;;2.00;;
53505;SDS011;39388;50.936;6.848;2022-10-16T06:29:10;2.10;;;1.92;;
53505;SDS011;39388;50.936;6.848;2022-10-16T06:31:40;2.45;;;2.13;;
53505;SDS011;39388;50.936;6.848;2022-10-16T06:34:10;4.28;;;2.20;;
53505;SDS011;39388;50.936;6.848;2022-10-16T06:36:41;2.42;;;2.22;;
53505;SDS011;39388;50.936;6.848;2022-10-16T06:39:13;2.78;;;2.15;;
53505;SDS011;39388;50.936;6.848;2022-10-16T06:41:43;3.05;;;2.28;;
53505;SDS011;39388;50.936;6.848;2022-10-16T06:44:13;3.25;;;2.33;;
53505;SDS011;39388;50.936;6.848;2022-10-16T06:46:44;2.92;;;2.40;;
53505;SDS011;39388;50.936;6.848;2022-10-16T06:49:14;4.85;;;2.40;;
53505;SDS011;39388;50.936;6.848;2022-10-16T06:51:51;3.05;;;2.13;;
53505;SDS011;39388;50.936;6.848;2022-10-16T06:54:21;2.40;;;2.20;;
53505;SDS011;39388;50.936;6.848;2022-10-16T06:56:51;4.07;;;2.33;;
53505;SDS011;39388;50.936;6.848;2022-10-16T07:01:54;2.42;;;2.15;;
53505;SDS011;39388;50.936;6.848;2022-10-16T07:04:25;3.08;;;2.10;;
53505;SDS011;39388;50.936;6.848;2022-10-16T07:07:00;3.33;;;2.00;;
53505;SDS011;39388;50.936;6.848;2022-10-16T07:09:31;2.10;;;1.88;;
53505;SDS011;39388;50.936;6.848;2022-10-16T07:12:03;2.38;;;2.17;;
53505;SDS011;39388;50.936;6.848;2022-10-16T07:14:34;3.85;;;2.20;;
53505;SDS011;39388;50.936;6.848;2022-10-16T07:17:07;3.75;;;2.40;;
53505;SDS011;39388;50.936;6.848;2022-10-16T07:19:37;2.90;;;2.50;;
53505;SDS011;39388;50.936;6.848;2022-10-16T07:22:07;3.25;;;2.15;;
53505;SDS011;39388;50.936;6.848;2022-10-16T07:24:38;2.17;;;1.90;;
53505;SDS011;39388;50.936;6.848;2022-10-16T07:27:11;3.25;;;2.28;;
53505;SDS011;39388;50.936;6.848;2022-10-16T07:29:41;3.95;;;2.03;;
53505;SDS011;39388;50.936;6.848;2022-10-16T07:32:11;3.65;;;1.92;;
53505;SDS011;39388;50.936;6.848;2022-10-16T07:34:42;2.10;;;1.90;;
53505;SDS011;39388;50.936;6.848;2022-10-16T07:37:12;3.38;;;2.10;;
53505;SDS011;39388;50.936;6.848;2022-10-16T07:39:45;3.80;;;2.20;;
53505;SDS011;39388;50.936;6.848;2022-10-16T07:42:21;5.65;;;2.10;;
53505;SDS011;39388;50.936;6.848;2022-10-16T07:52:13;3.63;;;2.17;;
53505;SDS011;39388;50.936;6.848;2022-10-16T07:54:47;2.20;;;2.10;;
53505;SDS011;39388;50.936;6.848;2022-10-16T07:57:27;2.60;;;2.17;;
53505;SDS011;39388;50.936;6.848;2022-10-16T07:59:58;4.05;;;2.10;;
53505;SDS011;39388;50.936;6.848;2022-10-16T08:02:28;2.67;;;2.30;;
53505;SDS011;39388;50.936;6.848;2022-10-16T08:04:58;3.20;;;2.30;;
53505;SDS011;39388;50.936;6.848;2022-10-16T08:07:29;2.83;;;2.20;;
53505;SDS011;39388;50.936;6.848;2022-10-16T08:09:59;2.60;;;2.13;;
53505;SDS011;39388;50.936;6.848;2022-10-16T08:12:30;2.42;;;1.92;;
53505;SDS011;39388;50.936;6.848;2022-10-16T08:15:00;2.30;;;2.10;;
53505;SDS011;39388;50.936;6.848;2022-10-16T08:17:32;3.15;;;2.33;;
53505;SDS011;39388;50.936;6.848;2022-10-16T08:20:06;3.00;;;2.20;;
53505;SDS011;39388;50.936;6.848;2022-10-16T08:23:15;2.38;;;2.15;;
53505;SDS011;39388;50.936;6.848;2022-10-16T08:25:45;2.83;;;2.10;;
53505;SDS011;39388;50.936;6.848;2022-10-16T08:28:15;2.47;;;1.88;;
53505;SDS011;39388;50.936;6.848;2022-10-16T08:30:46;2.10;;;1.90;;
53505;SDS011;39388;50.936;6.848;2022-10-16T08:33:17;2.05;;;1.85;;
53505;SDS011;39388;50.936;6.848;2022-10-16T08:35:53;2.60;;;1.95;;
53505;SDS011;39388;50.936;6.848;2022-10-16T08:38:24;5.47;;;2.10;;
53505;SDS011;39388;50.936;6.848;2022-10-16T08:40:56;1.98;;;1.77;;
53505;SDS011;39388;50.936;6.848;2022-10-16T08:49:34;1.20;;;1.10;;
53505;SDS011;39388;50.936;6.848;2022-10-16T08:52:10;2.80;;;1.13;;
53505;SDS011;39388;50.936;6.848;2022-10-16T08:54:43;1.10;;;1.00;;
53505;SDS011;39388;50.936;6.848;2022-10-16T08:57:21;2.30;;;1.00;;
53505;SDS011;39388;50.936;6.848;2022-10-16T08:59:54;0.93;;;0.93;;
53505;SDS011;39388;50.936;6.848;2022-10-16T09:02:34;1.17;;;0.93;;
53505;SDS011;39388;50.936;6.848;2022-10-16T09:14:14;3.30;;;1.05;;
53505;SDS011;39388;50.936;6.848;2022-10-16T09:22:47;2.00;;;0.90;;
53505;SDS011;39388;50.936;6.848;2022-10-16T09:25:20;1.05;;;0.90;;
53505;SDS011;39388;50.936;6.848;2022-10-16T09:27:52;1.00;;;0.80;;
53505;SDS011;39388;50.936;6.848;2022-10-16T09:30:25;3.38;;;0.90;;
53505;SDS011;39388;50.936;6.848;2022-10-16T09:32:59;1.23;;;1.00;;
53505;SDS011;39388;50.936;6.848;2022-10-16T09:35:35;1.10;;;0.82;;
53505;SDS011;39388;50.936;6.848;2022-10-16T09:38:37;2.20;;;1.02;;
53505;SDS011;39388;50.936;6.848;2022-10-16T09:43:55;1.80;;;1.20;;
53505;SDS011;39388;50.936;6.848;2022-10-16T09:46:30;2.55;;;0.90;;
53505;SDS011;39388;50.936;6.848;2022-10-16T09:49:16;1.52;;;0.80;;
53505;SDS011;39388;50.936;6.848;2022-10-16T09:52:13;1.10;;;0.80;;
53505;SDS011;39388;50.936;6.848;2022-10-16T09:54:54;1.10;;;1.00;;
53505;SDS011;39388;50.936;6.848;2022-10-16T09:57:30;1.10;;;0.90;;
53505;SDS011;39388;50.936;6.848;2022-10-16T10:00:04;2.70;;;0.80;;
53505;SDS011;39388;50.936;6.848;2022-10-16T10:02:38;0.90;;;0.90;;
53505;SDS011;39388;50.936;6.848;2022-10-16T10:05:19;1.10;;;0.90;;
53505;SDS011;39388;50.936;6.848;2022-10-16T10:07:56;1.30;;;0.73;;
53505;SDS011;39388;50.936;6.848;2022-10-16T10:10:30;1.80;;;0.82;;
53505;SDS011;39388;50.936;6.848;2022-10-16T10:13:01;2.10;;;1.10;;
53505;SDS011;39388;50.936;6.848;2022-10-16T10:15:33;1.23;;;0.88;;
53505;SDS011;39388;50.936;6.848;2022-10-16T10:18:19;1.73;;;0.82;;
53505;SDS011;39388;50.936;6.848;2022-10-16T10:20:59;1.65;;;1.13;;
53505;SDS011;39388;50.936;6.848;2022-10-16T10:23:30;2.13;;;0.70;;
53505;SDS011;39388;50.936;6.848;2022-10-16T10:26:04;1.77;;;0.90;;
53505;SDS011;39388;50.936;6.848;2022-10-16T10:33:58;9.10;;;1.67;;
53505;SDS011;39388;50.936;6.848;2022-10-16T10:36:37;1.25;;;0.80;;
53505;SDS011;39388;50.936;6.848;2022-10-16T10:55:43;1.05;;;0.70;;
53505;SDS011;39388;50.936;6.848;2022-10-16T11:00:57;0.88;;;0.60;;
53505;SDS011;39388;50.936;6.848;2022-10-16T11:06:29;1.13;;;0.60;;
53505;SDS011;39388;50.936;6.848;2022-10-16T11:11:52;1.00;;;0.52;;
53505;SDS011;39388;50.936;6.848;2022-10-16T11:14:34;1.40;;;0.63;;
53505;SDS011;39388;50.936;6.848;2022-10-16T11:17:23;0.70;;;0.60;;
53505;SDS011;39388;50.936;6.848;2022-10-16T11:25:29;0.82;;;0.63;;
53505;SDS011;39388;50.936;6.848;2022-10-16T11:30:43;0.82;;;0.60;;
53505;SDS011;39388;50.936;6.848;2022-10-16T11:36:31;2.00;;;0.50;;
53505;SDS011;39388;50.936;6.848;2022-10-16T11:44:08;1.10;;;0.77;;
53505;SDS011;39388;50.936;6.848;2022-10-16T11:49:45;1.55;;;0.45;;
53505;SDS011;39388;50.936;6.848;2022-10-16T11:52:22;0.85;;;0.65;;
53505;SDS011;39388;50.936;6.848;2022-10-16T11:55:04;1.25;;;0.50;;
53505;SDS011;39388;50.936;6.848;2022-10-16T11:57:45;2.22;;;0.52;;
53505;SDS011;39388;50.936;6.848;2022-10-16T12:00:24;0.68;;;0.60;;
53505;SDS011;39388;50.936;6.848;2022-10-16T12:08:28;0.95;;;0.50;;
53505;SDS011;39388;50.936;6.848;2022-10-16T12:11:20;1.30;;;0.60;;
53505;SDS011;39388;50.936;6.848;2022-10-16T12:16:52;0.82;;;0.50;;
53505;SDS011;39388;50.936;6.848;2022-10-16T12:19:28;0.90;;;0.57;;
53505;SDS011;39388;50.936;6.848;2022-10-16T12:27:23;2.47;;;0.80;;
53505;SDS011;39388;50.936;6.848;2022-10-16T12:35:22;2.03;;;0.73;;
53505;SDS011;39388;50.936;6.848;2022-10-16T12:38:04;0.80;;;0.60;;
53505;SDS011;39388;50.936;6.848;2022-10-16T12:40:36;0.93;;;0.60;;
53505;SDS011;39388;50.936;6.848;2022-10-16T12:43:50;0.50;;;0.50;;
53505;SDS011;39388;50.936;6.848;2022-10-16T12:48:38;1.23;;;0.90;;
53505;SDS011;39388;50.936;6.848;2022-10-16T12:51:22;1.77;;;0.80;;
53505;SDS011;39388;50.936;6.848;2022-10-16T12:53:59;1.42;;;0.60;;
53505;SDS011;39388;50.936;6.848;2022-10-16T13:02:39;1.10;;;0.60;;
53505;SDS011;39388;50.936;6.848;2022-10-16T13:16:19;1.50;;;0.50;;
53505;SDS011;39388;50.936;6.848;2022-10-16T13:21:38;2.05;;;0.60;;
53505;SDS011;39388;50.936;6.848;2022-10-16T13:30:15;1.85;;;0.65;;
53505;SDS011;39388;50.936;6.848;2022-10-16T13:32:51;2.15;;;0.70;;
53505;SDS011;39388;50.936;6.848;2022-10-16T13:35:29;1.35;;;0.52;;
53505;SDS011;39388;50.936;6.848;2022-10-16T13:38:05;1.35;;;0.63;;
53505;SDS011;39388;50.936;6.848;2022-10-16T13:40:36;1.38;;;0.50;;
53505;SDS011;39388;50.936;6.848;2022-10-16T13:43:07;1.60;;;0.82;;
53505;SDS011;39388;50.936;6.848;2022-10-16T13:45:39;2.80;;;0.80;;
53505;SDS011;39388;50.936;6.848;2022-10-16T13:48:09;1.88;;;0.60;;
53505;SDS011;39388;50.936;6.848;2022-10-16T13:50:42;1.75;;;1.02;;
53505;SDS011;39388;50.936;6.848;2022-10-16T13:53:13;1.00;;;0.60;;
53505;SDS011;39388;50.936;6.848;2022-10-16T13:55:44;1.75;;;0.52;;
53505;SDS011;39388;50.936;6.848;2022-10-16T13:58:18;1.27;;;0.45;;
53505;SDS011;39388;50.936;6.848;2022-10-16T14:00:52;1.10;;;0.60;;
53505;SDS011;39388;50.936;6.848;2022-10-16T14:03:28;1.42;;;0.65;;
53505;SDS011;39388;50.936;6.848;2022-10-16T14:06:00;1.25;;;0.60;;
53505;SDS011;39388;50.936;6.848;2022-10-16T14:08:33;9.38;;;1.38;;
53505;SDS011;39388;50.936;6.848;2022-10-16T14:11:03;2.42;;;0.70;;
53505;SDS011;39388;50.936;6.848;2022-10-16T14:13:36;1.88;;;0.90;;
53505;SDS011;39388;50.936;6.848;2022-10-16T14:16:16;1.50;;;0.60;;
53505;SDS011;39388;50.936;6.848;2022-10-16T14:18:55;1.05;;;0.50;;
53505;SDS011;39388;50.936;6.848;2022-10-16T14:21:29;1.23;;;0.50;;
53505;SDS011;39388;50.936;6.848;2022-10-16T14:23:59;0.73;;;0.55;;
53505;SDS011;39388;50.936;6.848;2022-10-16T14:26:44;0.68;;;0.60;;
53505;SDS011;39388;50.936;6.848;2022-10-16T14:29:17;4.15;;;0.65;;
53505;SDS011;39388;50.936;6.848;2022-10-16T14:37:06;1.02;;;0.60;;
53505;SDS011;39388;50.936;6.848;2022-10-16T14:39:53;1.60;;;0.43;;
53505;SDS011;39388;50.936;6.848;2022-10-16T14:42:25;1.20;;;0.55;;
53505;SDS011;39388;50.936;6.848;2022-10-16T14:44:55;3.00;;;0.70;;
53505;SDS011;39388;50.936;6.848;2022-10-16T14:47:26;0.57;;;0.50;;
53505;SDS011;39388;50.936;6.848;2022-10-16T14:49:57;1.20;;;0.80;;
53505;SDS011;39388;50.936;6.848;2022-10-16T14:54:59;2.03;;;1.00;;
53505;SDS011;39388;50.936;6.848;2022-10-16T14:57:31;1.85;;;1.35;;
53505;SDS011;39388;50.936;6.848;2022-10-16T15:00:13;14.73;;;7.03;;
53505;SDS011;39388;50.936;6.848;2022-10-16T15:02:49;5.28;;;3.25;;
53505;SDS011;39388;50.936;6.848;2022-10-16T15:07:55;0.60;;;0.60;;
53505;SDS011;39388;50.936;6.848;2022-10-16T15:10:27;1.85;;;0.90;;
53505;SDS011;39388;50.936;6.848;2022-10-16T15:12:58;1.20;;;0.60;;
53505;SDS011;39388;50.936;6.848;2022-10-16T15:15:33;1.25;;;0.55;;
53505;SDS011;39388;50.936;6.848;2022-10-16T15:18:05;0.77;;;0.65;;
53505;SDS011;39388;50.936;6.848;2022-10-16T15:20:36;0.90;;;0.80;;
53505;SDS011;39388;50.936;6.848;2022-10-16T15:25:47;0.50;;;0.50;;
53505;SDS011;39388;50.936;6.848;2022-10-16T15:28:19;0.90;;;0.63;;
53505;SDS011;39388;50.936;6.848;2022-10-16T15:30:51;1.08;;;0.70;;
53505;SDS011;39388;50.936;6.848;2022-10-16T15:33:24;0.95;;;0.80;;
53505;SDS011;39388;50.936;6.848;2022-10-16T15:36:02;0.82;;;0.75;;
53505;SDS011;39388;50.936;6.848;2022-10-16T15:38:33;2.25;;;0.63;;
53505;SDS011;39388;50.936;6.848;2022-10-16T15:41:04;5.72;;;0.82;;
53505;SDS011;39388;50.936;6.848;2022-10-16T15:43:34;1.05;;;0.63;;
53505;SDS011;39388;50.936;6.848;2022-10-16T15:46:06;0.80;;;0.60;;
53505;SDS011;39388;50.936;6.848;2022-10-16T15:48:39;0.85;;;0.70;;
53505;SDS011;39388;50.936;6.848;2022-10-16T15:51:10;0.90;;;0.80;;
53505;SDS011;39388;50.936;6.848;2022-10-16T15:53:40;0.75;;;0.70;;
53505;SDS011;39388;50.936;6.848;2022-10-16T15:56:11;2.03;;;0.70;;
53505;SDS011;39388;50.936;6.848;2022-10-16T15:58:42;0.70;;;0.70;;
53505;SDS011;39388;50.936;6.848;2022-10-16T16:01:13;1.17;;;0.88;;
53505;SDS011;39388;50.936;6.848;2022-10-16T16:03:43;0.98;;;0.80;;
53505;SDS011;39388;50.936;6.848;2022-10-16T16:06:14;1.95;;;1.00;;
53505;SDS011;39388;50.936;6.848;2022-10-16T16:08:45;2.55;;;1.17;;
53505;SDS011;39388;50.936;6.848;2022-10-16T16:11:16;1.00;;;0.75;;
53505;SDS011;39388;50.936;6.848;2022-10-16T16:13:47;2.75;;;1.00;;
53505;SDS011;39388;50.936;6.848;2022-10-16T16:16:17;2.58;;;0.98;;
53505;SDS011;39388;50.936;6.848;2022-10-16T16:21:22;0.82;;;0.77;;
53505;SDS011;39388;50.936;6.848;2022-10-16T16:23:52;2.03;;;1.00;;
53505;SDS011;39388;50.936;6.848;2022-10-16T16:26:27;1.20;;;0.85;;
53505;SDS011;39388;50.936;6.848;2022-10-16T16:29:03;1.15;;;1.05;;
53505;SDS011;39388;50.936;6.848;2022-10-16T16:31:34;0.70;;;0.70;;
53505;SDS011;39388;50.936;6.848;2022-10-16T16:34:04;1.23;;;0.80;;
53505;SDS011;39388;50.936;6.848;2022-10-16T16:36:35;1.10;;;0.90;;
53505;SDS011;39388;50.936;6.848;2022-10-16T16:39:06;1.48;;;1.20;;
53505;SDS011;39388;50.936;6.848;2022-10-16T16:41:37;1.52;;;1.00;;
53505;SDS011;39388;50.936;6.848;2022-10-16T16:44:08;2.05;;;1.00;;
53505;SDS011;39388;50.936;6.848;2022-10-16T16:46:41;1.88;;;1.20;;
53505;SDS011;39388;50.936;6.848;2022-10-16T16:49:13;1.17;;;1.02;;
53505;SDS011;39388;50.936;6.848;2022-10-16T16:51:44;1.83;;;1.00;;
53505;SDS011;39388;50.936;6.848;2022-10-16T16:54:14;1.40;;;1.00;;
53505;SDS011;39388;50.936;6.848;2022-10-16T16:56:45;1.40;;;1.10;;
53505;SDS011;39388;50.936;6.848;2022-10-16T16:59:16;1.80;;;1.10;;
53505;SDS011;39388;50.936;6.848;2022-10-16T17:01:50;0.93;;;0.88;;
53505;SDS011;39388;50.936;6.848;2022-10-16T17:04:21;2.87;;;1.47;;
53505;SDS011;39388;50.936;6.848;2022-10-16T17:06:54;1.17;;;1.10;;
53505;SDS011;39388;50.936;6.848;2022-10-16T17:09:25;2.72;;;1.30;;
53505;SDS011;39388;50.936;6.848;2022-10-16T17:11:56;2.80;;;1.20;;
53505;SDS011;39388;50.936;6.848;2022-10-16T17:14:26;1.48;;;1.05;;
53505;SDS011;39388;50.936;6.848;2022-10-16T17:16:56;2.28;;;1.23;;
53505;SDS011;39388;50.936;6.848;2022-10-16T17:19:27;2.30;;;1.27;;
53505;SDS011;39388;50.936;6.848;2022-10-16T17:21:57;4.25;;;1.80;;
53505;SDS011;39388;50.936;6.848;2022-10-16T17:24:28;2.10;;;1.70;;
53505;SDS011;39388;50.936;6.848;2022-10-16T17:26:58;7.70;;;2.30;;
53505;SDS011;39388;50.936;6.848;2022-10-16T17:29:28;12.10;;;6.78;;
53505;SDS011;39388;50.936;6.848;2022-10-16T17:31:59;2.53;;;1.83;;
53505;SDS011;39388;50.936;6.848;2022-10-16T17:34:29;2.42;;;1.40;;
53505;SDS011;39388;50.936;6.848;2022-10-16T17:36:59;1.83;;;1.30;;
53505;SDS011;39388;50.936;6.848;2022-10-16T17:39:30;1.95;;;1.65;;
53505;SDS011;39388;50.936;6.848;2022-10-16T17:42:00;2.33;;;1.05;;
53505;SDS011;39388;50.936;6.848;2022-10-16T17:44:31;4.30;;;1.50;;
53505;SDS011;39388;50.936;6.848;2022-10-16T17:47:01;1.30;;;1.20;;
53505;SDS011;39388;50.936;6.848;2022-10-16T17:49:32;1.33;;;1.17;;
53505;SDS011;39388;50.936;6.848;2022-10-16T17:52:02;2.25;;;1.30;;
53505;SDS011;39388;50.936;6.848;2022-10-16T17:54:33;1.73;;;1.30;;
53505;SDS011;39388;50.936;6.848;2022-10-16T17:57:03;2.13;;;1.33;;
53505;SDS011;39388;50.936;6.848;2022-10-16T17:59:34;2.28;;;1.60;;
53505;SDS011;39388;50.936;6.848;2022-10-16T18:02:04;3.25;;;1.88;;